Flight Track Log - Related Links

Times and Time Zones

All times are in EST time to prevent confusion due to time zone crossing. See the PDT4207 flight status page for this flight to view local times or setup timezone preferences in your user account.

Time Position Orientation Groundspeed Altitude Reporting Facility
EST Latitude Longitude Course Direction KTS MPH feet Rate Location/Type
Fri 09:41:53 PM 39.9000 -75.2333 311° West 111 128 600  Level Philadelphia TRACON
Fri 09:43:29 PM 39.9167 -75.3167 285° West 158 182 2,800 1,417 Climbing Philadelphia TRACON
Fri 09:44:00 PM 40.0193 -75.3693 323° Northwest  Level FlightAware Approximate
Fri 09:44:17 PM 39.9333 -75.3500 303° West 159 183 4,000  Level Philadelphia TRACON
Fri 09:45:00 PM 40.0699 -75.4183 339° North  Level FlightAware Approximate
Fri 09:45:12 PM 39.9500 -75.4000 294° West 152 175 5,300  Level Philadelphia TRACON
Fri 09:46:00 PM 40.1170 -75.4670 323° Northwest  Level FlightAware Approximate
Fri 09:46:12 PM 39.9833 -75.4500 311° West 146 168 6,800  Level Philadelphia TRACON
Fri 09:47:00 PM 40.1699 -75.5048 311° West  Level FlightAware Approximate
Fri 09:47:11 PM 40.0167 -75.4667 339° North 156 180 8,300  Level Philadelphia TRACON
Fri 09:48:27 PM 40.0611 -75.4819 345° North 151 174 10,100 1,412 Climbing New York Center
Fri 09:49:27 PM 40.0956 -75.5058 332° Northwest 150 173 11,500 1,000 Climbing New York Center
Fri 09:50:27 PM 40.1344 -75.5247 340° North 150 173 12,100 300 Climbing New York Center
Fri 09:51:27 PM 40.1897 -75.5478 342° North 184 212 12,100 -100 Level New York Center
Fri 09:52:27 PM 40.2517 -75.5656 348° North 216 249 11,900 250 Descending New York Center
Fri 09:53:27 PM 40.3056 -75.5719 355° North 221 254 12,600 900 Climbing New York Center
Fri 09:54:27 PM 40.3611 -75.5894 347° North 191 220 13,700 650 Climbing New York Center
Fri 09:55:27 PM 40.4083 -75.6092 342° North 180 207 13,900 100 Climbing New York Center
Fri 09:56:27 PM 40.4661 -75.6214 351° North 198 228 13,900  Level New York Center
Fri 09:57:27 PM 40.5219 -75.6281 355° North 208 239 13,900  Level New York Center
Fri 09:58:27 PM 40.5867 -75.6300 359° North 221 254 13,900  Level New York Center
Fri 09:59:27 PM 40.6550 -75.6403 353° North 226 260 13,900  Level New York Center
Fri 10:00:27 PM 40.7167 -75.6611 346° North 226 260 13,900  Level New York Center
Fri 10:01:27 PM 40.7786 -75.6736 351° North 226 260 13,900  Level New York Center
Fri 10:02:27 PM 40.8386 -75.6861 351° North 226 260 13,900  Level New York Center
Fri 10:03:27 PM 40.8983 -75.7014 349° North 221 254 13,900 -450 Level New York Center
Fri 10:04:27 PM 40.9706 -75.7150 352° North 236 272 13,000 -900 Descending New York Center
Fri 10:05:27 PM 41.0411 -75.7256 354° North 249 287 12,100 -942 Descending New York Center
Fri 10:06:28 PM 41.1072 -75.7386 352° North 254 292 11,100 -950 Descending New York Center
Fri 10:07:27 PM 41.1689 -75.7597 346° North 254 292 10,200 -504 Descending New York Center
Fri 10:08:27 PM 41.2328 -75.7756 349° North 254 292 10,100 -50 Descending New York Center
Fri 10:09:27 PM 41.2947 -75.7856 353° North 234 269 10,100  Level New York Center
Fri 10:10:27 PM 41.3547 -75.7931 355° North 222 255 10,100  Level New York Center
Fri 10:11:28 PM 41.4125 -75.8083 349° North 216 249 10,100 -450 Level New York Center
Fri 10:12:27 PM 41.4764 -75.8269 348° North 222 255 9,200 -958 Descending New York Center
Fri 10:13:27 PM 41.5464 -75.8406 352° North 236 272 8,200 -550 Descending New York Center
Fri 10:14:27 PM 41.6167 -75.8542 352° North 241 277 8,100 -50 Descending New York Center
Fri 10:15:27 PM 41.6806 -75.8700 350° North 231 266 8,100  Level New York Center
Fri 10:16:27 PM 41.7403 -75.8858 349° North 226 260 8,100 -200 Level New York Center
Fri 10:17:27 PM 41.7981 -75.9014 349° North 226 260 7,700 -500 Descending New York Center
Fri 10:18:27 PM 41.8708 -75.9014 360° North 231 266 7,100 -550 Descending New York Center
Fri 10:19:27 PM 41.9372 -75.9067 357° North 238 274 6,600 -650 Descending New York Center
Fri 10:20:27 PM 42.0036 -75.9089 359° North 238 274 5,800 -950 Descending New York Center
Fri 10:21:27 PM 42.0681 -75.9139 357° North 233 268 4,700 -1,050 Descending New York Center
Fri 10:22:27 PM 42.1283 -75.9186 357° North 233 268 3,700 -1,150 Descending New York Center
Fri 10:23:27 PM 42.1686 -75.9497 330° Northwest 177 204 2,400 -800 Descending New York Center
Fri 10:24:27 PM 42.2072 -75.9667 342° North 159 183 2,100 -300 Descending New York Center

Login

Don't have an account? Register now (free) for customized features, flight alerts, and more!